WZZ24K EPMO-EPKK
Flight info
| Callsign | WZZ24K |
|---|---|
| Flight time | 0h 30m |
| Altitude | 34000 |
| Route | EVINA M66 KUKAM |
| Aircraft | A20N/M-SDE2E3FGHIRWXY/LB1 |
Departure
| Time | 2026-05-08 18:46 |
|---|---|
| Airport | Warsaw Modlin Airport (EPMO) |
Arrival
| Time | 2026-05-08 19:17 |
|---|---|
| Airport | Kraków John Paul II International Airport (EPKK) |
| Time | Latitude | Longitude | Altitude | Speed | Heading |
|---|---|---|---|---|---|
| 2026-05-08 18:31 | 52.44750 | 20.65338 | 355 ft | 0 kts | 205° |
| 2026-05-08 18:40 | 52.44759 | 20.65344 | 360 ft | 2 kts | 204° |
| 2026-05-08 18:41 | 52.44773 | 20.65353 | 356 ft | 2 kts | 189° |
| 2026-05-08 18:41 | 52.44788 | 20.65353 | 356 ft | 2 kts | 149° |
| 2026-05-08 18:41 | 52.44797 | 20.65335 | 355 ft | 2 kts | 104° |
| 2026-05-08 18:41 | 52.44799 | 20.65325 | 357 ft | 0 kts | 92° |
| 2026-05-08 18:43 | 52.44799 | 20.65346 | 360 ft | 6 kts | 87° |
| 2026-05-08 18:43 | 52.44810 | 20.65475 | 354 ft | 16 kts | 81° |
| 2026-05-08 18:44 | 52.44831 | 20.65697 | 349 ft | 22 kts | 82° |
| 2026-05-08 18:44 | 52.44853 | 20.65936 | 353 ft | 22 kts | 81° |
| 2026-05-08 18:44 | 52.44881 | 20.66208 | 356 ft | 26 kts | 84° |
| 2026-05-08 18:44 | 52.44908 | 20.66526 | 357 ft | 30 kts | 81° |
| 2026-05-08 18:45 | 52.44932 | 20.66774 | 350 ft | 17 kts | 82° |
| 2026-05-08 18:45 | 52.44954 | 20.67011 | 353 ft | 18 kts | 77° |
| 2026-05-08 18:45 | 52.45039 | 20.67073 | 359 ft | 18 kts | 354° |
| 2026-05-08 18:45 | 52.45206 | 20.67031 | 354 ft | 28 kts | 350° |
| 2026-05-08 18:46 | 52.45292 | 20.66886 | 353 ft | 10 kts | 248° |
| 2026-05-08 18:46 | 52.45258 | 20.66611 | 346 ft | 65 kts | 261° |
| 2026-05-08 18:46 | 52.45139 | 20.65298 | 591 ft | 147 kts | 263° |
| 2026-05-08 18:46 | 52.44971 | 20.63480 | 1623 ft | 175 kts | 263° |
| 2026-05-08 18:47 | 52.44782 | 20.61429 | 2752 ft | 189 kts | 263° |
| 2026-05-08 18:47 | 52.44586 | 20.59198 | 3854 ft | 207 kts | 263° |
| 2026-05-08 18:47 | 52.44387 | 20.56749 | 5017 ft | 225 kts | 261° |
| 2026-05-08 18:47 | 52.43656 | 20.54432 | 6221 ft | 243 kts | 228° |
| 2026-05-08 18:48 | 52.42173 | 20.52848 | 7247 ft | 268 kts | 201° |
| 2026-05-08 18:48 | 52.40316 | 20.52237 | 8578 ft | 277 kts | 188° |
| 2026-05-08 18:48 | 52.38392 | 20.52016 | 9972 ft | 284 kts | 185° |
| 2026-05-08 18:48 | 52.36372 | 20.51846 | 11060 ft | 300 kts | 186° |
| 2026-05-08 18:49 | 52.34198 | 20.51604 | 11821 ft | 325 kts | 187° |
| 2026-05-08 18:49 | 52.31875 | 20.51276 | 12651 ft | 343 kts | 188° |
| 2026-05-08 18:49 | 52.29495 | 20.50900 | 13864 ft | 348 kts | 188° |
| 2026-05-08 18:49 | 52.27058 | 20.50499 | 14967 ft | 354 kts | 189° |
| 2026-05-08 18:50 | 52.24572 | 20.50084 | 16070 ft | 359 kts | 189° |
| 2026-05-08 18:50 | 52.22083 | 20.49666 | 17132 ft | 365 kts | 189° |
| 2026-05-08 18:50 | 52.19557 | 20.49242 | 18189 ft | 370 kts | 189° |
| 2026-05-08 18:50 | 52.17000 | 20.48814 | 19123 ft | 376 kts | 189° |
| 2026-05-08 18:51 | 52.14330 | 20.48369 | 20077 ft | 380 kts | 189° |
| 2026-05-08 18:51 | 52.11674 | 20.47927 | 20997 ft | 386 kts | 189° |
| 2026-05-08 18:51 | 52.09023 | 20.47487 | 21887 ft | 391 kts | 189° |
| 2026-05-08 18:51 | 52.06276 | 20.47031 | 22798 ft | 396 kts | 189° |
| 2026-05-08 18:52 | 52.03533 | 20.46577 | 23677 ft | 401 kts | 189° |
| 2026-05-08 18:52 | 52.00719 | 20.46111 | 24428 ft | 406 kts | 189° |
| 2026-05-08 18:52 | 51.97921 | 20.45650 | 25175 ft | 410 kts | 190° |
| 2026-05-08 18:52 | 51.95055 | 20.45177 | 25891 ft | 415 kts | 190° |
| 2026-05-08 18:53 | 51.92159 | 20.44701 | 26595 ft | 419 kts | 190° |
| 2026-05-08 18:53 | 51.89253 | 20.44222 | 27279 ft | 423 kts | 190° |
| 2026-05-08 18:53 | 51.86333 | 20.43743 | 27939 ft | 427 kts | 190° |
| 2026-05-08 18:53 | 51.83345 | 20.43253 | 28581 ft | 431 kts | 190° |
| 2026-05-08 18:54 | 51.80333 | 20.42759 | 29204 ft | 435 kts | 190° |
| 2026-05-08 18:54 | 51.77336 | 20.42268 | 29773 ft | 439 kts | 190° |
| 2026-05-08 18:54 | 51.74267 | 20.41767 | 30326 ft | 443 kts | 190° |
| 2026-05-08 18:54 | 51.71167 | 20.41260 | 30841 ft | 447 kts | 190° |
| 2026-05-08 18:55 | 51.64970 | 20.40250 | 31969 ft | 450 kts | 190° |
| 2026-05-08 18:55 | 51.61844 | 20.39742 | 32646 ft | 449 kts | 190° |
| 2026-05-08 18:55 | 51.58753 | 20.39241 | 33323 ft | 447 kts | 190° |
| 2026-05-08 18:56 | 51.56694 | 20.38908 | 33750 ft | 447 kts | 190° |
| 2026-05-08 18:56 | 51.52600 | 20.38245 | 34099 ft | 443 kts | 190° |
| 2026-05-08 18:56 | 51.50559 | 20.37915 | 34130 ft | 443 kts | 190° |
| 2026-05-08 18:57 | 51.44395 | 20.36918 | 34134 ft | 442 kts | 191° |
| 2026-05-08 18:57 | 51.38327 | 20.35614 | 34080 ft | 435 kts | 197° |
| 2026-05-08 18:57 | 51.35448 | 20.34364 | 33608 ft | 429 kts | 202° |
| 2026-05-08 18:58 | 51.32608 | 20.32866 | 32785 ft | 428 kts | 203° |
| 2026-05-08 18:58 | 51.29802 | 20.31374 | 31845 ft | 429 kts | 203° |
| 2026-05-08 18:58 | 51.26955 | 20.29872 | 30842 ft | 431 kts | 203° |
| 2026-05-08 18:58 | 51.24081 | 20.28368 | 29893 ft | 431 kts | 202° |
| 2026-05-08 18:59 | 51.21254 | 20.26900 | 29055 ft | 426 kts | 202° |
| 2026-05-08 18:59 | 51.18476 | 20.25463 | 28238 ft | 421 kts | 202° |
| 2026-05-08 18:59 | 51.15698 | 20.24028 | 27446 ft | 416 kts | 202° |
| 2026-05-08 18:59 | 51.12954 | 20.22611 | 26655 ft | 411 kts | 202° |
| 2026-05-08 19:00 | 51.10237 | 20.21209 | 25881 ft | 407 kts | 202° |
| 2026-05-08 19:00 | 51.07549 | 20.19824 | 25139 ft | 403 kts | 202° |
| 2026-05-08 19:00 | 51.04909 | 20.18465 | 24408 ft | 400 kts | 201° |
| 2026-05-08 19:00 | 51.02271 | 20.17109 | 23697 ft | 396 kts | 201° |
| 2026-05-08 19:01 | 50.99663 | 20.15770 | 22895 ft | 392 kts | 201° |
| 2026-05-08 19:01 | 50.97103 | 20.14459 | 22131 ft | 388 kts | 201° |
| 2026-05-08 19:01 | 50.94533 | 20.13144 | 21376 ft | 383 kts | 201° |
| 2026-05-08 19:01 | 50.92004 | 20.11851 | 20643 ft | 379 kts | 201° |
| 2026-05-08 19:02 | 50.89526 | 20.10586 | 19931 ft | 375 kts | 201° |
| 2026-05-08 19:02 | 50.87057 | 20.09328 | 19217 ft | 372 kts | 201° |
| 2026-05-08 19:02 | 50.84593 | 20.08073 | 18559 ft | 368 kts | 201° |
| 2026-05-08 19:02 | 50.82146 | 20.06880 | 17786 ft | 366 kts | 196° |
| 2026-05-08 19:03 | 50.79625 | 20.06512 | 17053 ft | 367 kts | 183° |
| 2026-05-08 19:03 | 50.77071 | 20.06647 | 16351 ft | 365 kts | 180° |
| 2026-05-08 19:03 | 50.74537 | 20.06878 | 15649 ft | 361 kts | 180° |
| 2026-05-08 19:03 | 50.72056 | 20.07075 | 14982 ft | 358 kts | 181° |
| 2026-05-08 19:04 | 50.69566 | 20.07222 | 14323 ft | 354 kts | 181° |
| 2026-05-08 19:04 | 50.67114 | 20.07330 | 13658 ft | 350 kts | 182° |
| 2026-05-08 19:04 | 50.64713 | 20.07417 | 13009 ft | 346 kts | 182° |
| 2026-05-08 19:04 | 50.62310 | 20.07496 | 12367 ft | 341 kts | 182° |
| 2026-05-08 19:05 | 50.59973 | 20.07570 | 11746 ft | 337 kts | 182° |
| 2026-05-08 19:05 | 50.57637 | 20.07644 | 11132 ft | 333 kts | 182° |
| 2026-05-08 19:05 | 50.55333 | 20.07718 | 10548 ft | 328 kts | 182° |
| 2026-05-08 19:05 | 50.53083 | 20.07792 | 10251 ft | 326 kts | 182° |
| 2026-05-08 19:06 | 50.50794 | 20.07865 | 10149 ft | 326 kts | 182° |
| 2026-05-08 19:06 | 50.48550 | 20.07938 | 10135 ft | 325 kts | 182° |
| 2026-05-08 19:06 | 50.46341 | 20.08014 | 10134 ft | 306 kts | 182° |
| 2026-05-08 19:06 | 50.44270 | 20.08090 | 10132 ft | 286 kts | 182° |
| 2026-05-08 19:07 | 50.42341 | 20.08158 | 10138 ft | 279 kts | 183° |
| 2026-05-08 19:07 | 50.40390 | 20.08215 | 10123 ft | 279 kts | 183° |
| 2026-05-08 19:07 | 50.38478 | 20.08274 | 9917 ft | 275 kts | 183° |
| 2026-05-08 19:07 | 50.36550 | 20.08333 | 9465 ft | 274 kts | 183° |
| 2026-05-08 19:08 | 50.34644 | 20.08390 | 8959 ft | 274 kts | 182° |
| 2026-05-08 19:08 | 50.32756 | 20.08448 | 8457 ft | 273 kts | 182° |
| 2026-05-08 19:08 | 50.30861 | 20.08508 | 7981 ft | 272 kts | 181° |
| 2026-05-08 19:08 | 50.28962 | 20.08568 | 7501 ft | 271 kts | 181° |
| 2026-05-08 19:09 | 50.27093 | 20.08626 | 7041 ft | 271 kts | 181° |
| 2026-05-08 19:09 | 50.25213 | 20.08684 | 6583 ft | 270 kts | 181° |
| 2026-05-08 19:09 | 50.23338 | 20.08743 | 6110 ft | 269 kts | 180° |
| 2026-05-08 19:09 | 50.21469 | 20.08802 | 5629 ft | 268 kts | 180° |
| 2026-05-08 19:10 | 50.19611 | 20.08861 | 5167 ft | 266 kts | 180° |
| 2026-05-08 19:10 | 50.17771 | 20.08920 | 4885 ft | 256 kts | 180° |
| 2026-05-08 19:10 | 50.16053 | 20.08977 | 4715 ft | 238 kts | 180° |
| 2026-05-08 19:10 | 50.14451 | 20.09031 | 4574 ft | 222 kts | 180° |
| 2026-05-08 19:11 | 50.12999 | 20.08793 | 4438 ft | 205 kts | 203° |
| 2026-05-08 19:11 | 50.11945 | 20.07499 | 4322 ft | 187 kts | 238° |
| 2026-05-08 19:11 | 50.11536 | 20.05698 | 4278 ft | 165 kts | 260° |
| 2026-05-08 19:11 | 50.11327 | 20.04079 | 4179 ft | 141 kts | 259° |
| 2026-05-08 19:12 | 50.11132 | 20.02678 | 4060 ft | 126 kts | 258° |
| 2026-05-08 19:12 | 50.10946 | 20.01359 | 4011 ft | 127 kts | 258° |
| 2026-05-08 19:12 | 50.10760 | 20.00027 | 4015 ft | 123 kts | 259° |
| 2026-05-08 19:12 | 50.10580 | 19.98736 | 3850 ft | 120 kts | 259° |
| 2026-05-08 19:13 | 50.10405 | 19.97472 | 3570 ft | 121 kts | 259° |
| 2026-05-08 19:13 | 50.10227 | 19.96188 | 3282 ft | 121 kts | 259° |
| 2026-05-08 19:13 | 50.10049 | 19.94904 | 2994 ft | 121 kts | 259° |
| 2026-05-08 19:13 | 50.09874 | 19.93635 | 2717 ft | 121 kts | 259° |
| 2026-05-08 19:14 | 50.09696 | 19.92354 | 2439 ft | 121 kts | 260° |
| 2026-05-08 19:14 | 50.09518 | 19.91069 | 2163 ft | 121 kts | 260° |
| 2026-05-08 19:14 | 50.09346 | 19.89827 | 2001 ft | 119 kts | 259° |
| 2026-05-08 19:14 | 50.09167 | 19.88541 | 1865 ft | 120 kts | 259° |
| 2026-05-08 19:15 | 50.08996 | 19.87309 | 1672 ft | 113 kts | 260° |
| 2026-05-08 19:15 | 50.08850 | 19.86140 | 1520 ft | 105 kts | 260° |
| 2026-05-08 19:15 | 50.08705 | 19.85058 | 1433 ft | 100 kts | 260° |
| 2026-05-08 19:15 | 50.08542 | 19.83995 | 1338 ft | 103 kts | 258° |
| 2026-05-08 19:16 | 50.08383 | 19.82881 | 1247 ft | 107 kts | 260° |
| 2026-05-08 19:16 | 50.08223 | 19.81737 | 1104 ft | 109 kts | 260° |
| 2026-05-08 19:16 | 50.08065 | 19.80565 | 916 ft | 113 kts | 260° |
| 2026-05-08 19:16 | 50.07905 | 19.79368 | 803 ft | 109 kts | 261° |
| 2026-05-08 19:17 | 50.07780 | 19.78419 | 793 ft | 54 kts | 255° |
| 2026-05-08 19:17 | 50.07694 | 19.78131 | 790 ft | 21 kts | 206° |
| 2026-05-08 19:17 | 50.07557 | 19.78108 | 791 ft | 8 kts | 182° |
| 2026-05-08 19:17 | 50.07555 | 19.78107 | 791 ft | 0 kts | 182° |
| 2026-05-08 19:18 | 50.07538 | 19.78106 | 791 ft | 11 kts | 182° |
| 2026-05-08 19:18 | 50.07472 | 19.78149 | 791 ft | 4 kts | 100° |
| 2026-05-08 19:19 | 50.07486 | 19.78259 | 791 ft | 20 kts | 78° |
| 2026-05-08 19:19 | 50.07524 | 19.78536 | 791 ft | 31 kts | 78° |
| 2026-05-08 19:19 | 50.07576 | 19.78887 | 791 ft | 35 kts | 77° |
| 2026-05-08 19:19 | 50.07632 | 19.79281 | 791 ft | 39 kts | 77° |
| 2026-05-08 19:20 | 50.07689 | 19.79702 | 791 ft | 33 kts | 78° |
| 2026-05-08 19:20 | 50.07697 | 19.79763 | 791 ft | 9 kts | 78° |
| 2026-05-08 19:20 | 50.07624 | 19.79896 | 791 ft | 18 kts | 167° |
| 2026-05-08 19:20 | 50.07513 | 19.79957 | 791 ft | 11 kts | 124° |
| 2026-05-08 19:21 | 50.07519 | 19.80055 | 791 ft | 14 kts | 76° |
| 2026-05-08 19:21 | 50.07545 | 19.80240 | 791 ft | 7 kts | 80° |
| 2026-05-08 19:21 | 50.07545 | 19.80243 | 791 ft | 0 kts | 83° |
| 2026-05-08 19:21 | 50.07522 | 19.80266 | 791 ft | 10 kts | 160° |
| 2026-05-08 19:22 | 50.07497 | 19.80276 | 791 ft | 0 kts | 167° |